This is the latest recevied weather packets stored in our database for station/object KV9E. If no packets are shown the sender has not sent any weather packets the latest 1 day(s).
| Time | Temp. | Humidity | Pressure | Rain* | Wind** | Luminosity | Snow |
|---|---|---|---|---|---|---|---|
| 1836274808 | 21.11° C | 71% | 1018.4 hPa | 0 mm | 0 m/s | 0 W/m² | - |
| 1836274506 | 21.11° C | 72% | 1018.3 hPa | 0 mm | 0 m/s | 0 W/m² | - |
| 1836274359 | 21.11° C | 70% | 1018.4 hPa | 0 mm | 0 m/s | 0 W/m² | - |
| 1836274198 | 21.11° C | 72% | 1018.6 hPa | 0 mm | 0 m/s | 0 W/m² | - |
| 1836273897 | 21.11° C | 73% | 1018.6 hPa | 0 mm | 0 m/s | 0 W/m² | - |
| 1778057468 | 18.33° C | 78% | 1007.7 hPa | 0 mm | 1.34 m/s, 177° | 0 W/m² | - |
| 1778057165 | 18.33° C | 78% | 1007.8 hPa | 0 mm | 4.02 m/s, 246° | 0 W/m² | - |
| 1778056861 | 18.33° C | 77% | 1007.8 hPa | 0 mm | 0.89 m/s, 160° | 0 W/m² | - |
| 1778056559 | 18.33° C | 77% | 1007.7 hPa | 0 mm | 0.89 m/s, 132° | 0 W/m² | - |
| 1778056256 | 18.33° C | 77% | 1007.4 hPa | 0 mm | 0.89 m/s, 173° | 0 W/m² | - |
| 1778055952 | 18.33° C | 76% | 1007.5 hPa | 0 mm | 0 m/s | 0 W/m² | - |
| 1778055648 | 18.33° C | 76% | 1007.5 hPa | 0 mm | 0 m/s | 0 W/m² | - |
| 1778055347 | 18.33° C | 76% | 1007.6 hPa | 0 mm | 0.89 m/s, 170° | 0 W/m² | - |
| 1778055043 | 18.33° C | 76% | 1007.6 hPa | 0 mm | 0.45 m/s, 172° | 0 W/m² | - |
| 1778054741 | 18.33° C | 75% | 1007.6 hPa | 0 mm | 0 m/s | 0 W/m² | - |
| 1778054438 | 18.33° C | 75% | 1007.5 hPa | 0 mm | 0 m/s | 0 W/m² | - |
| 1778054136 | 18.33° C | 75% | 1007.4 hPa | 0 mm | 0.45 m/s, 164° | 0 W/m² | - |
| 1778053832 | 18.33° C | 75% | 1007.2 hPa | 0 mm | 0.89 m/s, 180° | 0 W/m² | - |
| 1778053530 | 18.33° C | 74% | 1007.2 hPa | 0 mm | 0.89 m/s, 225° | 0 W/m² | - |
| 1778053227 | 18.33° C | 74% | 1007 hPa | 0 mm | 0.45 m/s, 165° | 0 W/m² | - |
| 1778052925 | 18.33° C | 73% | 1007.4 hPa | 0 mm | 0 m/s | 0 W/m² | - |
| 1778052621 | 18.33° C | 73% | 1007.3 hPa | 0 mm | 1.34 m/s, 103° | 0 W/m² | - |
| 1778052319 | 18.33° C | 73% | 1007.3 hPa | 0 mm | 0.45 m/s, 165° | 0 W/m² | - |
| 1778052016 | 18.33° C | 73% | 1007.5 hPa | 0 mm | 0.89 m/s, 169° | 0 W/m² | - |
| 1778051715 | 18.33° C | 72% | 1007.3 hPa | 0 mm | 0.89 m/s, 197° | 0 W/m² | - |
* Rain latest hour (hover to see other rain measurements)
** Current wind speed in m/s (hover to see current wind gust speed)